createdAt,value
2023-04-18T00:01:18.761Z,11.50
2023-04-18T00:03:45.783Z,14.07
2023-04-18T00:06:13.716Z,12.95
2023-04-18T00:08:40.356Z,10.20
2023-04-18T00:11:07.009Z,11.93
2023-04-18T00:13:33.569Z,11.20
2023-04-18T00:16:00.372Z,11.85
2023-04-18T00:18:27.695Z,9.38
2023-04-18T00:20:54.719Z,9.52
2023-04-18T00:23:22.271Z,10.57
2023-04-18T00:25:48.864Z,10.75
2023-04-18T00:28:15.621Z,7.88
2023-04-18T00:30:42.173Z,8.43
2023-04-18T00:33:08.932Z,8.73
2023-04-18T00:35:35.412Z,8.32
2023-04-18T00:38:01.834Z,10.40
2023-04-18T00:40:28.252Z,8.77
2023-04-18T00:42:54.662Z,10.20
2023-04-18T00:45:21.110Z,7.20
2023-04-18T00:47:47.498Z,8.43
2023-04-18T00:50:15.245Z,7.78
2023-04-18T00:52:42.322Z,8.73
2023-04-18T00:55:09.309Z,9.80
2023-04-18T00:57:36.646Z,9.43
2023-04-18T01:00:10.471Z,9.43
2023-04-18T01:02:37.777Z,10.10
2023-04-18T01:05:04.696Z,9.75
2023-04-18T01:07:33.320Z,8.50
2023-04-18T01:10:02.004Z,7.57
2023-04-18T01:12:28.610Z,7.80
2023-04-18T01:14:55.259Z,9.52
2023-04-18T01:17:23.534Z,10.55
2023-04-18T01:19:50.945Z,9.63
2023-04-18T01:22:17.645Z,8.55
2023-04-18T01:24:44.024Z,8.63
2023-04-18T01:27:13.864Z,9.15
2023-04-18T01:29:40.732Z,8.82
2023-04-18T01:32:07.497Z,8.27
2023-04-18T01:34:33.975Z,7.78
2023-04-18T01:37:00.425Z,8.95
2023-04-18T01:39:26.851Z,7.38
2023-04-18T01:41:53.421Z,6.30
2023-04-18T01:44:19.964Z,8.23
2023-04-18T01:46:46.374Z,7.50
2023-04-18T01:49:12.926Z,7.88
2023-04-18T01:51:39.425Z,9.57
2023-04-18T01:54:06.021Z,8.70
2023-04-18T01:56:32.466Z,7.85
2023-04-18T01:58:59.109Z,7.38
2023-04-18T02:01:25.545Z,9.55
2023-04-18T02:03:52.064Z,8.82
2023-04-18T02:06:18.529Z,8.20
2023-04-18T02:08:45.101Z,7.72
2023-04-18T02:11:11.566Z,9.48
2023-04-18T02:13:37.942Z,7.72
2023-04-18T02:16:04.571Z,7.55
2023-04-18T02:18:34.584Z,8.70
2023-04-18T02:21:00.968Z,7.93
2023-04-18T02:23:27.570Z,8.77
2023-04-18T02:25:55.656Z,8.68
2023-04-18T02:28:22.016Z,9.43
2023-04-18T02:30:48.570Z,9.65
2023-04-18T02:33:14.960Z,9.95
2023-04-18T02:35:41.624Z,9.10
2023-04-18T02:38:08.356Z,8.27
2023-04-18T02:40:34.708Z,9.57
2023-04-18T02:43:02.506Z,9.32
2023-04-18T02:45:29.057Z,9.57
2023-04-18T02:47:56.735Z,9.63
2023-04-18T02:50:24.710Z,10.57
2023-04-18T02:52:52.435Z,9.18
2023-04-18T02:55:19.180Z,10.87
2023-04-18T02:57:45.830Z,9.23
2023-04-18T03:00:13.755Z,9.68
2023-04-18T03:02:40.215Z,8.63
2023-04-18T03:05:07.401Z,12.32
2023-04-18T03:07:33.864Z,10.02
2023-04-18T03:10:00.546Z,10.98
2023-04-18T03:12:26.979Z,12.07
2023-04-18T03:14:53.566Z,11.13
2023-04-18T03:17:21.323Z,10.88
2023-04-18T03:19:48.055Z,11.98
2023-04-18T03:22:15.509Z,12.07
2023-04-18T03:24:41.884Z,12.20
2023-04-18T03:27:08.447Z,11.60
2023-04-18T03:29:34.970Z,12.85
2023-04-18T03:32:01.361Z,14.90
2023-04-18T03:34:28.625Z,12.32
2023-04-18T03:36:55.028Z,12.93
2023-04-18T03:39:21.431Z,13.02
2023-04-18T03:41:47.784Z,11.65
2023-04-18T03:44:14.720Z,12.25
2023-04-18T03:46:41.492Z,13.85
2023-04-18T03:49:08.034Z,15.18
2023-04-18T03:51:43.168Z,12.15
2023-04-18T03:54:09.736Z,13.07
2023-04-18T03:56:36.212Z,13.23
2023-04-18T03:59:06.632Z,12.02
2023-04-18T04:01:33.240Z,12.80
2023-04-18T04:04:01.986Z,15.13
2023-04-18T04:06:28.555Z,13.00
2023-04-18T04:08:54.989Z,11.25
2023-04-18T04:11:21.884Z,11.00
2023-04-18T04:13:48.450Z,12.63
2023-04-18T04:16:15.224Z,11.32
2023-04-18T04:18:41.870Z,13.90
2023-04-18T04:21:08.187Z,10.93
2023-04-18T04:23:34.522Z,13.73
2023-04-18T04:26:04.553Z,11.27
2023-04-18T04:28:31.772Z,10.68
2023-04-18T04:30:58.146Z,11.93
2023-04-18T04:33:28.254Z,11.95
2023-04-18T04:35:56.429Z,11.30
2023-04-18T04:38:25.641Z,12.20
2023-04-18T04:40:53.085Z,11.95
2023-04-18T04:43:20.405Z,12.77
2023-04-18T04:45:51.793Z,12.85
2023-04-18T04:48:19.966Z,12.43
2023-04-18T04:50:54.932Z,13.77
2023-04-18T04:53:22.163Z,13.20
2023-04-18T04:55:48.977Z,13.00
2023-04-18T04:58:15.635Z,11.57
2023-04-18T05:00:42.292Z,12.88
2023-04-18T05:03:09.615Z,14.18
2023-04-18T05:05:37.659Z,14.60
2023-04-18T05:08:04.927Z,11.77
2023-04-18T05:10:32.464Z,11.60
2023-04-18T05:13:00.182Z,13.98
2023-04-18T05:15:26.561Z,11.07
2023-04-18T05:17:52.994Z,14.40
2023-04-18T05:20:19.447Z,15.82
2023-04-18T05:22:45.813Z,13.73
2023-04-18T05:25:12.786Z,14.38
2023-04-18T05:27:39.495Z,14.93
2023-04-18T05:30:06.879Z,15.98
2023-04-18T05:32:33.360Z,13.50
2023-04-18T05:34:59.963Z,14.07
2023-04-18T05:37:26.712Z,13.57
2023-04-18T05:39:53.056Z,15.40
2023-04-18T05:42:19.416Z,14.20
2023-04-18T05:44:45.789Z,16.95
2023-04-18T05:47:12.192Z,15.20
2023-04-18T05:49:38.563Z,20.10
2023-04-18T05:52:05.002Z,18.30
2023-04-18T05:54:31.429Z,17.85
2023-04-18T05:56:58.380Z,15.90
2023-04-18T05:59:26.627Z,19.85
2023-04-18T06:01:53.503Z,19.38
2023-04-18T06:04:20.926Z,19.38
2023-04-18T06:06:47.737Z,19.07
2023-04-18T06:09:14.110Z,18.90
2023-04-18T06:11:41.042Z,16.38
2023-04-18T06:14:07.976Z,18.83
2023-04-18T06:16:36.306Z,21.42
2023-04-18T06:19:03.234Z,20.83
2023-04-18T06:21:29.593Z,21.25
2023-04-18T06:23:55.992Z,17.75
2023-04-18T06:26:22.404Z,22.70
2023-04-18T06:28:48.789Z,20.67
2023-04-18T06:31:15.208Z,23.00
2023-04-18T06:33:41.714Z,22.10
2023-04-18T06:36:08.841Z,22.42
2023-04-18T06:38:35.303Z,23.13
2023-04-18T06:41:01.674Z,19.77
2023-04-18T06:43:28.274Z,22.83
2023-04-18T06:45:56.374Z,27.92
2023-04-18T06:48:22.719Z,24.40
2023-04-18T06:50:49.066Z,22.48
2023-04-18T06:53:15.429Z,21.85
2023-04-18T06:55:41.889Z,26.45
2023-04-18T06:58:09.979Z,25.05
2023-04-18T07:00:36.371Z,23.27
2023-04-18T07:03:11.460Z,24.77
2023-04-18T07:05:38.835Z,21.88
2023-04-18T07:08:05.478Z,28.48
2023-04-18T07:10:32.073Z,23.85
2023-04-18T07:12:58.448Z,22.70
2023-04-18T07:15:24.772Z,22.63
2023-04-18T07:17:51.421Z,20.50
2023-04-18T07:20:17.786Z,26.42
2023-04-18T07:22:44.213Z,21.38
2023-04-18T07:25:10.792Z,22.20
2023-04-18T07:27:37.496Z,23.13
2023-04-18T07:30:04.784Z,21.70
2023-04-18T07:32:31.409Z,20.13
2023-04-18T07:34:58.037Z,19.15
2023-04-18T07:37:24.687Z,17.38
2023-04-18T07:39:51.579Z,21.10
2023-04-18T07:42:18.224Z,19.48
2023-04-18T07:44:44.799Z,18.08
2023-04-18T07:47:11.180Z,19.77
2023-04-18T07:49:37.997Z,16.35
2023-04-18T07:52:04.933Z,21.40
2023-04-18T07:54:31.559Z,21.67
2023-04-18T07:56:59.115Z,22.83
2023-04-18T07:59:25.569Z,22.00
2023-04-18T08:01:51.953Z,20.15
2023-04-18T08:04:18.490Z,19.17
2023-04-18T08:06:44.907Z,21.02
2023-04-18T08:09:12.064Z,24.75
2023-04-18T08:11:39.050Z,25.98
2023-04-18T08:14:06.734Z,22.42
2023-04-18T08:16:33.172Z,22.17
2023-04-18T08:18:59.533Z,22.00
2023-04-18T08:21:26.837Z,21.48
2023-04-18T08:23:53.271Z,20.10
2023-04-18T08:26:19.793Z,25.55
2023-04-18T08:28:46.653Z,21.52
2023-04-18T08:31:14.913Z,22.88
2023-04-18T08:33:41.810Z,20.88
2023-04-18T08:36:08.463Z,21.10
2023-04-18T08:38:35.091Z,20.38
2023-04-18T08:41:01.479Z,21.10
2023-04-18T08:43:30.299Z,20.45
2023-04-18T08:46:00.859Z,23.80
2023-04-18T08:48:30.538Z,22.58
2023-04-18T08:50:58.529Z,25.42
2023-04-18T08:53:28.089Z,21.35
2023-04-18T08:55:57.912Z,22.90
2023-04-18T08:58:27.178Z,22.45
2023-04-18T09:00:54.817Z,21.52
2023-04-18T09:03:37.712Z,22.63
2023-04-18T09:06:15.973Z,26.42
2023-04-18T09:08:43.798Z,23.35
2023-04-18T09:11:30.174Z,24.67
2023-04-18T09:13:58.848Z,23.27
2023-04-18T09:16:27.460Z,24.75
2023-04-18T09:19:21.786Z,27.98
2023-04-18T09:21:58.192Z,21.90
2023-04-18T09:24:26.970Z,24.92
2023-04-18T09:26:56.017Z,21.67
2023-04-18T09:29:41.113Z,26.50
2023-04-18T09:32:07.614Z,25.00
2023-04-18T09:34:34.188Z,23.25
2023-04-18T09:37:11.326Z,22.35
2023-04-18T09:39:43.661Z,23.90
2023-04-18T09:42:11.044Z,23.77
2023-04-18T09:44:38.881Z,25.10
2023-04-18T09:47:07.716Z,25.13
2023-04-18T09:49:34.912Z,25.85
2023-04-18T09:52:07.109Z,26.38
2023-04-18T09:54:38.606Z,25.42
2023-04-18T09:57:11.005Z,27.42
2023-04-18T09:59:51.134Z,25.85
2023-04-18T10:02:22.776Z,24.25
2023-04-18T10:04:51.140Z,27.33
2023-04-18T10:07:18.147Z,29.52
2023-04-18T10:09:46.427Z,29.15
2023-04-18T10:12:13.569Z,27.73
2023-04-18T10:14:43.122Z,29.02
2023-04-18T10:17:10.125Z,27.10
2023-04-18T10:19:38.207Z,27.25
2023-04-18T10:22:04.796Z,27.90
2023-04-18T10:24:53.309Z,28.80
2023-04-18T10:27:49.006Z,28.23
2023-04-18T10:30:16.602Z,31.20
2023-04-18T10:32:43.258Z,33.60
2023-04-18T10:35:10.728Z,31.77
2023-04-18T10:37:59.083Z,30.98
2023-04-18T10:42:59.699Z,31.90
2023-04-18T10:45:28.820Z,29.45
2023-04-18T10:48:25.077Z,32.70
2023-04-18T10:51:13.335Z,29.92
2023-04-18T10:53:47.421Z,35.08
2023-04-18T10:56:15.449Z,32.30
2023-04-18T10:58:44.271Z,26.42
2023-04-18T11:01:15.464Z,31.83
2023-04-18T11:03:42.475Z,32.25
2023-04-18T11:06:09.009Z,29.23
2023-04-18T11:08:36.911Z,28.20
2023-04-18T11:11:06.917Z,31.38
2023-04-18T11:13:33.306Z,27.88
2023-04-18T11:15:59.659Z,32.88
2023-04-18T11:18:26.030Z,29.77
2023-04-18T11:20:53.577Z,28.73
2023-04-18T11:23:23.737Z,29.85
2023-04-18T11:25:53.486Z,30.25
2023-04-18T11:28:21.874Z,34.80
2023-04-18T11:30:48.680Z,31.38
2023-04-18T11:33:15.731Z,31.40
2023-04-18T11:35:43.881Z,32.90
2023-04-18T11:38:15.241Z,32.33
2023-04-18T11:40:48.642Z,30.42
2023-04-18T11:43:21.144Z,28.92
2023-04-18T11:45:55.829Z,31.63
2023-04-18T11:48:22.996Z,30.67
2023-04-18T11:50:49.681Z,26.98
2023-04-18T11:53:35.072Z,26.55
2023-04-18T11:56:03.472Z,26.63
2023-04-18T11:58:31.928Z,26.67
2023-04-18T12:00:58.882Z,23.33
2023-04-18T12:03:25.742Z,29.85
2023-04-18T12:06:00.650Z,32.08
2023-04-18T12:08:27.099Z,29.77
2023-04-18T12:10:56.885Z,26.00
2023-04-18T12:13:31.323Z,27.58
2023-04-18T12:15:58.439Z,29.85
2023-04-18T12:18:24.915Z,27.88
2023-04-18T12:20:54.073Z,26.75
2023-04-18T12:23:37.206Z,23.88
2023-04-18T12:26:04.784Z,28.20
2023-04-18T12:28:32.366Z,28.45
2023-04-18T12:30:59.628Z,27.25
2023-04-18T12:33:27.051Z,27.60
2023-04-18T12:35:53.539Z,31.10
2023-04-18T12:38:22.219Z,30.92
2023-04-18T12:40:49.632Z,27.33
2023-04-18T12:43:16.783Z,27.92
2023-04-18T12:45:43.561Z,28.77
2023-04-18T12:48:10.518Z,31.67
2023-04-18T12:50:37.187Z,31.20
2023-04-18T12:53:04.025Z,27.17
2023-04-18T12:55:30.787Z,32.50
2023-04-18T12:57:58.160Z,26.35
2023-04-18T13:00:30.387Z,26.58
2023-04-18T13:02:57.602Z,24.50
2023-04-18T13:05:28.074Z,24.58
2023-04-18T13:08:08.708Z,26.70
2023-04-18T13:10:39.571Z,24.90
2023-04-18T13:13:06.097Z,27.73
2023-04-18T13:15:32.523Z,28.65
2023-04-18T13:18:05.037Z,30.23
2023-04-18T13:20:32.520Z,26.20
2023-04-18T13:22:58.997Z,24.23
2023-04-18T13:25:26.732Z,24.70
2023-04-18T13:27:54.414Z,24.95
2023-04-18T13:30:21.046Z,27.00
2023-04-18T13:32:49.048Z,23.75
2023-04-18T13:35:15.512Z,24.42
2023-04-18T13:37:42.242Z,25.85
2023-04-18T13:40:09.602Z,26.58
2023-04-18T13:42:37.571Z,23.65
2023-04-18T13:45:04.510Z,22.98
2023-04-18T13:47:31.424Z,20.48
2023-04-18T13:49:58.122Z,22.67
2023-04-18T13:52:25.597Z,22.58
2023-04-18T13:54:52.035Z,22.52
2023-04-18T13:57:20.294Z,19.92
2023-04-18T13:59:46.943Z,19.08
2023-04-18T14:02:13.583Z,22.65
2023-04-18T14:04:40.417Z,21.77
2023-04-18T14:07:08.148Z,25.02
2023-04-18T14:09:34.859Z,20.73
2023-04-18T14:12:02.254Z,19.95
2023-04-18T14:14:28.692Z,21.88
2023-04-18T14:16:55.402Z,20.60
2023-04-18T14:19:22.049Z,20.35
2023-04-18T14:21:49.566Z,21.88
2023-04-18T14:24:16.111Z,18.17
2023-04-18T14:26:42.732Z,20.83
2023-04-18T14:29:09.076Z,18.63
2023-04-18T14:31:37.732Z,19.77
2023-04-18T14:34:04.435Z,20.67
2023-04-18T14:36:32.076Z,23.00
2023-04-18T14:38:59.106Z,21.37
2023-04-18T14:41:25.539Z,21.20
2023-04-18T14:43:51.899Z,20.08
2023-04-18T14:46:18.561Z,17.92
2023-04-18T14:48:46.615Z,19.38
2023-04-18T14:51:15.172Z,24.05
2023-04-18T14:56:08.309Z,17.88
2023-04-18T14:58:34.625Z,18.05
2023-04-18T15:01:01.479Z,17.95
2023-04-18T15:03:28.240Z,19.58
2023-04-18T15:05:57.569Z,19.33
2023-04-18T15:08:23.997Z,19.55
2023-04-18T15:10:50.499Z,19.33
2023-04-18T15:13:17.202Z,18.00
2023-04-18T15:15:51.396Z,20.55
2023-04-18T15:18:17.774Z,16.85
2023-04-18T15:20:44.518Z,18.73
2023-04-18T15:23:13.564Z,18.20
2023-04-18T15:25:41.235Z,17.42
2023-04-18T15:28:07.608Z,20.20
2023-04-18T15:30:33.942Z,19.33
2023-04-18T15:33:02.105Z,20.80
2023-04-18T15:35:28.448Z,19.45
2023-04-18T15:37:54.786Z,21.25
2023-04-18T15:40:21.384Z,18.13
2023-04-18T15:42:49.702Z,17.00
2023-04-18T15:45:16.169Z,18.92
2023-04-18T15:47:42.583Z,17.98
2023-04-18T15:50:09.600Z,20.13
2023-04-18T15:52:36.610Z,17.42
2023-04-18T15:55:03.960Z,20.50
2023-04-18T15:57:31.133Z,18.23
2023-04-18T15:59:58.428Z,19.80
2023-04-18T16:02:25.916Z,18.15
2023-04-18T16:04:52.381Z,18.40
2023-04-18T16:07:19.230Z,19.95
2023-04-18T16:09:46.212Z,18.13
2023-04-18T16:12:12.585Z,20.80
2023-04-18T16:14:38.892Z,18.33
2023-04-18T16:17:05.281Z,21.13
2023-04-18T16:19:33.922Z,24.73
2023-04-18T16:22:02.109Z,18.92
2023-04-18T16:24:30.370Z,21.08
2023-04-18T16:26:56.924Z,17.13
2023-04-18T16:29:23.956Z,22.02
2023-04-18T16:31:51.599Z,21.00
2023-04-18T16:34:18.360Z,19.35
2023-04-18T16:36:44.687Z,19.08
2023-04-18T16:39:11.437Z,19.55
2023-04-18T16:41:37.876Z,19.67
2023-04-18T16:44:04.828Z,18.92
2023-04-18T16:46:32.512Z,19.38
2023-04-18T16:48:59.638Z,18.15
2023-04-18T16:51:26.837Z,18.00
2023-04-18T16:53:53.315Z,17.23
2023-04-18T16:56:19.948Z,17.13
2023-04-18T16:58:46.754Z,17.73
2023-04-18T17:01:13.210Z,19.60
2023-04-18T17:03:39.823Z,19.00
2023-04-18T17:06:06.819Z,17.98
2023-04-18T17:08:33.944Z,17.33
2023-04-18T17:11:02.320Z,17.63
2023-04-18T17:13:31.679Z,19.50
2023-04-18T17:15:58.487Z,18.45
2023-04-18T17:18:25.141Z,21.42
2023-04-18T17:20:53.897Z,19.55
2023-04-18T17:23:21.827Z,19.17
2023-04-18T17:25:49.060Z,19.15
2023-04-18T17:28:15.550Z,18.20
2023-04-18T17:30:43.352Z,18.77
2023-04-18T17:33:10.944Z,18.13
2023-04-18T17:35:39.751Z,19.30
2023-04-18T17:38:06.648Z,16.50
2023-04-18T17:40:33.209Z,16.48
2023-04-18T17:42:59.583Z,18.85
2023-04-18T17:45:25.958Z,18.13
2023-04-18T17:47:52.383Z,17.60
2023-04-18T17:50:18.993Z,17.75
2023-04-18T17:52:46.537Z,19.35
2023-04-18T17:55:13.190Z,18.77
2023-04-18T17:57:39.595Z,18.10
2023-04-18T18:00:10.646Z,17.88
2023-04-18T18:02:37.916Z,16.02
2023-04-18T18:05:05.421Z,16.75
2023-04-18T18:07:34.709Z,15.48
2023-04-18T18:10:01.784Z,17.50
2023-04-18T18:12:28.346Z,16.58
2023-04-18T18:14:57.161Z,16.48
2023-04-18T18:17:23.899Z,18.13
2023-04-18T18:19:50.589Z,17.38
2023-04-18T18:22:17.648Z,16.08
2023-04-18T18:24:44.014Z,17.08
2023-04-18T18:27:10.827Z,18.17
2023-04-18T18:29:37.218Z,17.02
2023-04-18T18:32:03.545Z,16.10
2023-04-18T18:34:31.962Z,17.98
2023-04-18T18:36:58.634Z,16.30
2023-04-18T18:39:25.010Z,18.13
2023-04-18T18:41:52.175Z,16.00
2023-04-18T18:44:21.004Z,18.35
2023-04-18T18:46:47.434Z,16.08
2023-04-18T18:49:14.133Z,16.38
2023-04-18T18:51:46.629Z,17.20
2023-04-18T18:54:13.603Z,15.88
2023-04-18T18:56:42.958Z,17.05
2023-04-18T18:59:09.696Z,17.10
2023-04-18T19:01:36.125Z,17.13
2023-04-18T19:04:03.635Z,18.75
2023-04-18T19:06:30.981Z,16.65
2023-04-18T19:08:57.769Z,18.30
2023-04-18T19:11:24.316Z,14.88
2023-04-18T19:13:51.939Z,16.80
2023-04-18T19:16:19.486Z,16.20
2023-04-18T19:18:49.436Z,16.70
2023-04-18T19:21:17.045Z,17.70
2023-04-18T19:23:44.545Z,16.23
2023-04-18T19:26:10.951Z,16.35
2023-04-18T19:28:37.651Z,16.20
2023-04-18T19:31:06.531Z,16.58
2023-04-18T19:33:32.935Z,15.98
2023-04-18T19:35:59.324Z,17.65
2023-04-18T19:38:26.069Z,16.27
2023-04-18T19:40:52.457Z,15.40
2023-04-18T19:43:18.850Z,19.40
2023-04-18T19:45:46.502Z,18.85
2023-04-18T19:48:12.931Z,16.97
2023-04-18T19:50:40.449Z,16.92
2023-04-18T19:53:06.866Z,16.08
2023-04-18T19:55:33.214Z,26.38
2023-04-18T19:57:59.917Z,16.90
2023-04-18T20:00:29.671Z,17.70
2023-04-18T20:02:58.611Z,16.40
2023-04-18T20:05:25.953Z,16.10
2023-04-18T20:07:52.372Z,18.25
2023-04-18T20:10:22.388Z,16.60
2023-04-18T20:12:50.058Z,17.83
2023-04-18T20:15:16.825Z,17.90
2023-04-18T20:17:44.708Z,16.42
2023-04-18T20:20:11.775Z,21.42
2023-04-18T20:22:40.232Z,16.50
2023-04-18T20:25:07.924Z,16.42
2023-04-18T20:27:34.537Z,16.10
2023-04-18T20:30:01.122Z,16.55
2023-04-18T20:32:29.208Z,15.93
2023-04-18T20:34:55.629Z,16.33
2023-04-18T20:37:22.259Z,18.63
2023-04-18T20:39:48.652Z,18.83
2023-04-18T20:42:15.724Z,16.60
2023-04-18T20:44:46.765Z,15.20
2023-04-18T20:47:15.516Z,17.20
2023-04-18T20:49:42.332Z,16.23
2023-04-18T20:52:11.646Z,16.38
2023-04-18T20:54:38.305Z,18.75
2023-04-18T20:57:05.116Z,18.13
2023-04-18T20:59:31.747Z,15.82
2023-04-18T21:01:58.261Z,18.90
2023-04-18T21:04:25.103Z,18.35
2023-04-18T21:06:51.719Z,16.85
2023-04-18T21:09:19.120Z,18.50
2023-04-18T21:11:45.492Z,17.73
2023-04-18T21:14:12.297Z,19.88
2023-04-18T21:16:39.640Z,18.33
2023-04-18T21:19:07.066Z,19.30
2023-04-18T21:21:34.423Z,16.88
2023-04-18T21:24:01.758Z,17.17
2023-04-18T21:26:28.263Z,17.05
2023-04-18T21:29:04.423Z,18.50
2023-04-18T21:31:33.289Z,16.85
2023-04-18T21:34:01.275Z,18.05
2023-04-18T21:36:29.399Z,17.75
2023-04-18T21:38:57.857Z,21.77
2023-04-18T21:41:25.630Z,19.50
2023-04-18T21:43:55.336Z,20.25
2023-04-18T21:46:22.042Z,19.50
2023-04-18T21:48:48.710Z,17.92
2023-04-18T21:51:16.943Z,21.63
2023-04-18T21:53:44.022Z,18.08
2023-04-18T21:56:11.173Z,17.42
2023-04-18T21:58:37.926Z,19.00
2023-04-18T22:01:04.613Z,19.15
2023-04-18T22:03:33.280Z,19.42
2023-04-18T22:06:00.498Z,19.80
2023-04-18T22:08:26.943Z,22.58
2023-04-18T22:10:57.507Z,21.40
2023-04-18T22:13:25.787Z,21.33
2023-04-18T22:15:52.556Z,21.48
2023-04-18T22:18:19.163Z,18.85
2023-04-18T22:20:46.850Z,23.85
2023-04-18T22:23:13.973Z,24.67
2023-04-18T22:25:40.828Z,26.00
2023-04-18T22:28:07.364Z,27.30
2023-04-18T22:30:33.820Z,22.50
2023-04-18T22:33:00.295Z,21.40
2023-04-18T22:35:27.039Z,20.88
2023-04-18T22:37:53.882Z,22.08
2023-04-18T22:40:20.354Z,24.52
2023-04-18T22:42:46.830Z,21.20
2023-04-18T22:45:13.663Z,21.95
2023-04-18T22:47:40.604Z,23.38
2023-04-18T22:50:07.918Z,21.02
2023-04-18T22:52:34.515Z,23.55
2023-04-18T22:55:03.971Z,22.80
2023-04-18T22:57:30.506Z,20.20
2023-04-18T22:59:57.209Z,23.38
2023-04-18T23:02:24.770Z,24.17
2023-04-18T23:04:51.510Z,19.90
2023-04-18T23:07:19.386Z,19.88
2023-04-18T23:09:46.038Z,21.27
2023-04-18T23:12:12.334Z,21.00
2023-04-18T23:14:41.014Z,20.70
2023-04-18T23:17:07.798Z,21.08
2023-04-18T23:19:34.360Z,21.92
2023-04-18T23:22:00.918Z,20.15
2023-04-18T23:24:30.925Z,22.25
2023-04-18T23:26:57.671Z,21.38
2023-04-18T23:29:24.242Z,22.65
2023-04-18T23:31:51.411Z,19.40
2023-04-18T23:34:17.887Z,21.20
2023-04-18T23:36:44.270Z,20.25
2023-04-18T23:39:11.074Z,20.30
2023-04-18T23:41:37.581Z,20.33
2023-04-18T23:44:04.134Z,21.88
2023-04-18T23:46:31.204Z,21.33
2023-04-18T23:48:57.835Z,26.80
2023-04-18T23:51:24.372Z,21.98
2023-04-18T23:53:51.062Z,21.02
2023-04-18T23:56:17.438Z,18.92
2023-04-18T23:58:43.816Z,23.83
